Time;durP1;ratioP1;P1;durP2;ratioP2;P2;SDS_P1;SDS_P2;PMS_P1;PMS_P2;Temp;Humidity;BMP_temperature;BMP_pressure;BME280_temperature;BME280_humidity;BME280_pressure;Samples;Min_cycle;Max_cycle;Signal;HPM_P1;HPM_P2
2023/11/26 00:02:22;;;;;;;4.05;1.00;;;;;;;4.45;100.00;101615.88;5059664;28;20088;-73
2023/11/26 00:04:47;;;;;;;1.52;0.75;;;;;;;4.45;100.00;101615.00;5059531;28;20029;-73
2023/11/26 00:07:13;;;;;;;2.38;1.10;;;;;;;4.45;100.00;101620.19;5059303;28;20060;-73
2023/11/26 00:09:39;;;;;;;2.38;1.10;;;;;;;4.43;100.00;101620.19;5059712;28;20374;-73
2023/11/26 00:12:07;;;;;;;11.00;2.00;;;;;;;4.42;100.00;101631.44;5058090;28;20087;-73
2023/11/26 00:14:32;;;;;;;5.32;1.67;;;;;;;4.32;100.00;101624.56;5055754;28;20021;-73
2023/11/26 00:16:58;;;;;;;3.42;1.73;;;;;;;4.32;100.00;101637.53;5055253;28;20052;-73
2023/11/26 00:19:24;;;;;;;7.90;1.98;;;;;;;4.19;100.00;101650.50;5055661;28;20120;-73
2023/11/26 00:21:49;;;;;;;8.52;1.70;;;;;;;4.27;100.00;101653.06;5053968;28;20049;-73
2023/11/26 00:24:14;;;;;;;7.82;1.23;;;;;;;4.35;100.00;101651.34;5055882;28;20029;-73
2023/11/26 00:26:40;;;;;;;3.97;0.95;;;;;;;4.45;100.00;101643.53;5055482;28;20064;-73
2023/11/26 00:29:05;;;;;;;2.85;1.08;;;;;;;4.54;100.00;101628.81;5056062;28;20037;-73
2023/11/26 00:31:31;;;;;;;3.60;1.15;;;;;;;4.60;100.00;101623.63;5056160;28;20048;-73
2023/11/26 00:33:57;;;;;;;7.32;1.30;;;;;;;4.66;100.00;101617.53;5056933;28;20033;-73
2023/11/26 00:36:22;;;;;;;4.03;0.98;;;;;;;4.69;100.00;101614.91;5056069;28;20223;-73
2023/11/26 00:38:47;;;;;;;2.13;0.80;;;;;;;4.72;100.00;101620.09;5055862;28;20037;-73
2023/11/26 00:41:13;;;;;;;2.65;0.73;;;;;;;4.76;100.00;101613.16;5056959;28;20100;-73
2023/11/26 00:43:39;;;;;;;0.80;0.50;;;;;;;4.78;100.00;101609.72;5056410;28;20119;-73
2023/11/26 00:46:05;;;;;;;2.95;1.23;;;;;;;4.79;100.00;101611.41;5056316;28;20036;-73
2023/11/26 00:48:30;;;;;;;1.95;0.70;;;;;;;4.79;100.00;101607.97;5056416;28;20029;-73
2023/11/26 00:50:56;;;;;;;1.75;0.52;;;;;;;4.78;100.00;101608.81;5056293;28;20044;-73
2023/11/26 00:53:22;;;;;;;5.38;1.10;;;;;;;4.72;100.00;101609.72;5056689;28;20041;-73
2023/11/26 00:55:47;;;;;;;2.95;0.73;;;;;;;4.65;100.00;101618.38;5056229;28;20048;-73
2023/11/26 00:58:14;;;;;;;4.90;1.20;;;;;;;4.58;100.00;101616.69;5054982;28;20040;-73
2023/11/26 01:00:39;;;;;;;2.80;0.95;;;;;;;4.52;100.00;101616.72;5055664;28;20104;-73
2023/11/26 01:03:06;;;;;;;3.75;0.88;;;;;;;4.47;100.00;101614.13;5043989;28;20252;-73
2023/11/26 01:05:31;;;;;;;4.35;1.00;;;;;;;4.45;100.00;101618.47;5056030;28;20102;-73
2023/11/26 01:07:57;;;;;;;1.13;0.70;;;;;;;4.43;100.00;101622.78;5055463;28;20351;-73
2023/11/26 01:10:22;;;;;;;1.27;0.50;;;;;;;4.39;100.00;101619.34;5055979;28;20041;-73
2023/11/26 01:12:48;;;;;;;1.48;0.70;;;;;;;4.38;100.00;101629.72;5055549;28;20380;-73
2023/11/26 01:15:14;;;;;;;4.10;1.00;;;;;;;4.35;100.00;101625.41;5056161;28;20391;-73
2023/11/26 01:17:40;;;;;;;5.18;0.90;;;;;;;4.29;100.00;101633.19;5055587;28;20045;-73
2023/11/26 01:20:06;;;;;;;2.13;0.90;;;;;;;4.27;100.00;101637.50;5056175;28;20365;-73
2023/11/26 01:22:31;;;;;;;1.95;0.85;;;;;;;4.32;100.00;101637.53;5055436;28;20484;-73
2023/11/26 01:24:57;;;;;;;4.03;1.08;;;;;;;4.30;100.00;101647.03;5053843;28;20101;-73
2023/11/26 01:27:23;;;;;;;3.42;1.20;;;;;;;4.32;100.00;101637.53;5056350;28;20295;-73
2023/11/26 01:29:48;;;;;;;1.40;1.10;;;;;;;4.37;100.00;101633.19;5055489;28;20040;-73
2023/11/26 01:32:13;;;;;;;3.47;0.70;;;;;;;4.45;100.00;101639.22;5055450;28;20029;-73
2023/11/26 01:34:39;;;;;;;2.70;1.20;;;;;;;4.54;100.00;101641.78;5055050;28;20271;-73
2023/11/26 01:37:05;;;;;;;1.30;0.60;;;;;;;4.64;100.00;101628.78;5055054;28;20041;-73
2023/11/26 01:39:30;;;;;;;1.88;0.80;;;;;;;4.69;100.00;101627.88;5054561;28;20247;-73
2023/11/26 01:41:56;;;;;;;2.63;0.98;;;;;;;4.69;100.00;101627.88;5055376;28;20068;-73
2023/11/26 01:44:21;;;;;;;2.70;0.90;;;;;;;4.66;100.00;101633.09;5056069;28;20051;-73
2023/11/26 01:46:46;;;;;;;4.53;1.20;;;;;;;4.68;100.00;101628.78;5054877;28;20118;-73
2023/11/26 01:49:12;;;;;;;2.78;1.10;;;;;;;4.72;100.00;101638.25;5055396;28;20047;-73
2023/11/26 01:51:37;;;;;;;4.13;0.93;;;;;;;4.78;100.00;101637.38;5055568;28;20327;-73
2023/11/26 01:54:04;;;;;;;1.70;0.80;;;;;;;4.83;100.00;101633.03;5054477;28;20087;-73
2023/11/26 01:56:30;;;;;;;7.03;1.25;;;;;;;4.86;100.00;101630.44;5053685;28;20039;-73
2023/11/26 01:58:56;;;;;;;2.63;1.27;;;;;;;4.90;100.00;101628.69;5065916;28;20020;-73
2023/11/26 02:01:22;;;;;;;2.15;0.90;;;;;;;4.92;100.00;101629.53;5061615;28;20323;-73
2023/11/26 02:03:48;;;;;;;0.90;0.75;;;;;;;4.94;100.00;101626.06;5054925;28;20427;-73
2023/11/26 02:06:14;;;;;;;0.93;0.63;;;;;;;4.94;100.00;101632.97;5055527;28;20037;-73
2023/11/26 02:08:39;;;;;;;1.25;0.70;;;;;;;4.94;100.00;101630.38;5058862;28;20100;-73
2023/11/26 02:11:05;;;;;;;1.90;0.77;;;;;;;4.95;100.00;101634.72;5065299;28;20402;-73
2023/11/26 02:13:30;;;;;;;3.60;1.13;;;;;;;4.90;100.00;101628.69;5054400;28;20056;-73
2023/11/26 02:15:56;;;;;;;2.50;0.80;;;;;;;4.87;100.00;101632.13;5054145;28;20028;-73
2023/11/26 02:18:21;;;;;;;4.10;1.00;;;;;;;4.84;100.00;101628.69;5054213;28;20111;-73
2023/11/26 02:20:47;;;;;;;4.20;0.85;;;;;;;4.80;100.00;101627.84;5053843;28;20099;-73
2023/11/26 02:23:13;;;;;;;3.78;1.00;;;;;;;4.74;100.00;101633.94;5054359;28;20374;-73
2023/11/26 02:25:38;;;;;;;1.55;0.90;;;;;;;4.77;100.00;101628.72;5054497;28;20064;-73
2023/11/26 02:28:07;;;;;;;2.97;0.90;;;;;;;4.79;100.00;101629.59;5054208;28;20256;-73
2023/11/26 02:30:33;;;;;;;;;;;;;;;4.80;100.00;101623.53;5054513;28;20331;-73
2023/11/26 02:32:58;;;;;;;1.83;0.70;;;;;;;4.78;100.00;101625.28;5052863;28;19927;-73
2023/11/26 02:35:25;;;;;;;4.38;1.00;;;;;;;4.76;100.00;101620.94;5054558;28;20205;-73
2023/11/26 02:37:51;;;;;;;3.03;0.77;;;;;;;4.71;100.00;101626.16;5053476;28;20068;-73
2023/11/26 02:40:17;;;;;;;2.60;0.85;;;;;;;4.69;100.00;101617.50;5054141;28;20095;-73
2023/11/26 02:42:44;;;;;;;3.60;1.00;;;;;;;4.68;100.00;101609.75;5053617;28;20083;-73
2023/11/26 02:45:10;;;;;;;1.88;0.70;;;;;;;4.62;100.00;101615.84;5053897;28;20237;-73
2023/11/26 02:47:35;;;;;;;3.13;0.95;;;;;;;4.59;100.00;101608.06;5052364;28;20155;-73
2023/11/26 02:50:02;;;;;;;3.33;0.70;;;;;;;4.58;100.00;101608.91;5053097;28;20021;-73
2023/11/26 02:52:27;;;;;;;1.40;0.85;;;;;;;4.59;100.00;101613.25;5053887;28;20044;-73
2023/11/26 02:54:53;;;;;;;2.30;0.90;;;;;;;4.57;100.00;101610.66;5053780;28;20320;-73
2023/11/26 02:57:19;;;;;;;6.07;1.33;;;;;;;4.52;100.00;101614.13;5054402;28;20084;-73
2023/11/26 02:59:45;;;;;;;5.28;1.25;;;;;;;4.49;100.00;101612.38;5053890;28;20406;-73
2023/11/26 03:02:10;;;;;;;3.17;0.90;;;;;;;4.48;100.00;101613.28;5053057;28;20362;-73
2023/11/26 03:04:44;;;;;;;7.22;1.20;;;;;;;4.49;100.00;101617.56;5053085;28;20056;-73
2023/11/26 03:07:10;;;;;;;4.32;1.00;;;;;;;4.54;100.00;101615.84;5052881;28;20058;-73
2023/11/26 03:12:55;;;;;;;2.17;0.77;;;;;;;4.56;100.00;101614.09;5054689;28;20115;-73
2023/11/26 03:15:05;;;;;;;3.00;0.77;;;;;;;4.64;100.00;101613.19;5034589;28;20271;-73
2023/11/26 03:17:30;;;;;;;2.40;0.82;;;;;;;4.66;100.00;101619.25;5034186;28;20049;-73
2023/11/26 03:19:56;;;;;;;3.97;1.30;;;;;;;4.67;100.00;101619.25;5036536;28;20045;-73
2023/11/26 03:22:21;;;;;;;3.78;1.20;;;;;;;4.64;100.00;101616.69;5053493;28;20037;-74
2023/11/26 03:24:46;;;;;;;2.97;1.08;;;;;;;4.66;100.00;101616.66;5052074;28;20033;-74
2023/11/26 03:27:15;;;;;;;2.10;1.05;;;;;;;4.66;100.00;101620.13;5054211;28;20044;-74
2023/11/26 03:29:40;;;;;;;2.38;0.90;;;;;;;4.68;100.00;101617.53;5054415;28;20275;-74
2023/11/26 03:32:06;;;;;;;4.22;1.33;;;;;;;4.67;100.00;101621.84;5054288;28;20063;-74
2023/11/26 03:34:32;;;;;;;4.47;1.17;;;;;;;4.71;100.00;101622.69;5052707;28;20041;-74
2023/11/26 03:36:57;;;;;;;4.00;1.08;;;;;;;4.72;100.00;101617.50;5052619;28;20056;-73
2023/11/26 03:39:22;;;;;;;3.95;1.10;;;;;;;4.73;100.00;101614.06;5052591;28;20036;-73
2023/11/26 03:41:48;;;;;;;1.73;1.00;;;;;;;4.75;100.00;101611.47;5053139;28;20198;-73
2023/11/26 03:44:14;;;;;;;1.05;0.90;;;;;;;4.73;100.00;101608.84;5054138;28;20044;-73
2023/11/26 03:46:40;;;;;;;3.42;1.30;;;;;;;4.73;100.00;101608.84;5053406;28;20044;-73
2023/11/26 03:49:06;;;;;;;1.95;1.42;;;;;;;4.72;100.00;101604.53;5056523;28;20375;-73
2023/11/26 03:51:32;;;;;;;3.78;1.38;;;;;;;4.71;100.00;101605.41;5057517;28;20071;-73
2023/11/26 03:53:58;;;;;;;4.20;1.60;;;;;;;4.70;100.00;101602.81;5056725;28;20028;-73
2023/11/26 03:56:24;;;;;;;4.32;1.23;;;;;;;4.70;100.00;101602.81;5056952;28;20078;-73
2023/11/26 03:58:49;;;;;;;3.05;1.10;;;;;;;4.71;100.00;101612.31;5056263;28;20351;-73
2023/11/26 04:01:15;;;;;;;2.88;1.40;;;;;;;4.71;100.00;101604.53;5056887;28;20058;-73
2023/11/26 04:03:40;;;;;;;1.70;1.38;;;;;;;4.71;100.00;101607.13;5057347;28;20063;-73
2023/11/26 04:06:06;;;;;;;3.60;1.58;;;;;;;4.69;100.00;101607.13;5057821;28;20135;-73
2023/11/26 04:08:31;;;;;;;4.53;1.25;;;;;;;4.69;100.00;101601.94;5058907;28;20124;-73
2023/11/26 04:10:57;;;;;;;1.30;0.93;;;;;;;4.71;100.00;101602.81;5056794;28;20312;-73
2023/11/26 04:13:24;;;;;;;1.63;0.88;;;;;;;4.75;100.00;101607.13;5056317;28;20049;-74
2023/11/26 04:15:55;;;;;;;1.08;0.90;;;;;;;4.78;100.00;101599.34;5055536;28;20043;-73
2023/11/26 04:18:21;;;;;;;4.97;1.33;;;;;;;4.74;100.00;101600.19;5056864;28;20052;-73
2023/11/26 04:20:47;;;;;;;4.45;1.77;;;;;;;4.70;100.00;101603.69;5056747;28;20250;-73
2023/11/26 04:23:14;;;;;;;6.15;1.52;;;;;;;4.67;100.00;101616.66;5055600;28;20091;-73
2023/11/26 04:25:39;;;;;;;6.68;1.88;;;;;;;4.64;100.00;101621.88;5056385;28;20402;-73
2023/11/26 04:28:05;;;;;;;2.97;1.10;;;;;;;4.63;100.00;101629.66;5056649;28;20048;-74
2023/11/26 04:30:31;;;;;;;6.55;1.40;;;;;;;4.61;100.00;101627.06;5056047;28;20075;-74
2023/11/26 04:32:57;;;;;;;5.45;1.20;;;;;;;4.65;100.00;101625.31;5055619;28;20047;-73
2023/11/26 04:35:23;;;;;;;1.63;0.82;;;;;;;4.73;100.00;101626.13;5056637;28;20040;-73
2023/11/26 04:37:49;;;;;;;3.85;0.88;;;;;;;4.80;100.00;101617.47;5055888;28;20041;-73
2023/11/26 04:40:15;;;;;;;1.45;0.80;;;;;;;4.86;100.00;101621.75;5056612;28;20052;-73
2023/11/26 04:42:41;;;;;;;5.97;1.00;;;;;;;4.88;100.00;101630.44;5055553;28;20051;-73
2023/11/26 04:45:07;;;;;;;2.83;0.90;;;;;;;4.90;100.00;101632.13;5056265;28;20041;-73
2023/11/26 04:47:35;;;;;;;3.17;0.77;;;;;;;4.93;100.00;101628.66;5055822;28;20047;-73
2023/11/26 04:50:01;;;;;;;2.83;0.75;;;;;;;4.91;100.00;101631.28;5055961;28;20047;-73
2023/11/26 04:52:26;;;;;;;1.48;0.63;;;;;;;4.94;100.00;101632.97;5056373;28;20029;-73
2023/11/26 04:54:52;;;;;;;1.77;0.70;;;;;;;4.94;100.00;101631.25;5055758;28;20044;-73
2023/11/26 04:57:17;;;;;;;2.30;0.60;;;;;;;4.96;100.00;101626.06;5055430;28;20029;-73
2023/11/26 04:59:42;;;;;;;2.80;0.68;;;;;;;4.98;100.00;101619.13;5055523;28;20525;-73
2023/11/26 05:02:10;;;;;;;1.63;0.40;;;;;;;4.99;100.00;101613.91;5056108;28;20371;-73
2023/11/26 05:04:38;;;;;;;0.82;0.43;;;;;;;5.02;100.00;101619.97;5054729;28;20067;-73
2023/11/26 05:07:05;;;;;;;2.25;0.77;;;;;;;4.98;100.00;101619.13;5055542;28;20351;-73
2023/11/26 05:09:31;;;;;;;1.45;0.80;;;;;;;4.93;100.00;101613.06;5055048;28;20394;-73
2023/11/26 05:11:57;;;;;;;1.65;0.70;;;;;;;4.87;100.00;101613.97;5055737;28;20313;-73
2023/11/26 05:14:22;;;;;;;1.23;0.85;;;;;;;4.85;100.00;101614.88;5056181;28;20037;-74
2023/11/26 05:16:47;;;;;;;2.40;0.82;;;;;;;4.83;100.00;101606.22;5055624;28;20052;-73
2023/11/26 05:19:13;;;;;;;1.70;0.82;;;;;;;4.80;100.00;101612.28;5056037;28;20037;-73
2023/11/26 05:21:39;;;;;;;1.98;0.80;;;;;;;4.76;100.00;101611.41;5055418;28;20040;-73
2023/11/26 05:24:05;;;;;;;1.80;0.80;;;;;;;4.75;100.00;101614.06;5055731;28;20044;-73
2023/11/26 05:26:31;;;;;;;1.30;0.70;;;;;;;4.73;100.00;101627.03;5055587;28;20028;-73
2023/11/26 05:28:57;;;;;;;1.98;0.70;;;;;;;4.71;100.00;101614.91;5055682;28;20086;-73
2023/11/26 05:31:22;;;;;;;1.27;0.60;;;;;;;4.65;100.00;101617.53;5055611;28;20045;-73
2023/11/26 05:33:48;;;;;;;2.75;0.85;;;;;;;4.62;100.00;101623.63;5055297;28;20043;-73
2023/11/26 05:36:13;;;;;;;4.72;1.10;;;;;;;4.55;100.00;101624.50;5055644;28;20127;-73
2023/11/26 05:38:38;;;;;;;8.35;1.60;;;;;;;4.52;100.00;101640.91;5055273;28;20041;-73
2023/11/26 05:41:04;;;;;;;4.57;1.20;;;;;;;4.51;100.00;101638.31;5055458;28;20340;-73
2023/11/26 05:43:30;;;;;;;8.95;1.40;;;;;;;4.53;100.00;101640.06;5055462;28;20114;-73
2023/11/26 05:45:55;;;;;;;4.25;0.95;;;;;;;4.69;100.00;101637.41;5055549;28;20032;-73
2023/11/26 05:48:21;;;;;;;5.32;1.42;;;;;;;4.75;100.00;101627.88;5055958;28;20320;-73
2023/11/26 05:50:46;;;;;;;8.02;1.70;;;;;;;4.81;100.00;101622.66;5055369;28;20373;-73
2023/11/26 05:53:12;;;;;;;2.25;1.10;;;;;;;4.84;100.00;101614.00;5055497;28;20209;-73
2023/11/26 05:55:38;;;;;;;2.67;0.90;;;;;;;4.87;100.00;101613.13;5055357;28;20040;-73
2023/11/26 05:58:03;;;;;;;5.53;1.40;;;;;;;4.85;100.00;101614.88;5055329;28;20029;-73
2023/11/26 06:00:28;;;;;;;2.33;1.10;;;;;;;4.81;100.00;101609.69;5054923;28;20043;-73
2023/11/26 06:02:55;;;;;;;2.67;0.93;;;;;;;4.81;100.00;101614.88;5055645;28;20033;-73
2023/11/26 06:05:21;;;;;;;3.33;0.90;;;;;;;4.84;100.00;101607.94;5055371;28;20037;-73
2023/11/26 06:07:46;;;;;;;1.05;0.77;;;;;;;4.85;100.00;101604.47;5055140;28;20103;-73
2023/11/26 06:10:11;;;;;;;2.78;1.10;;;;;;;4.83;100.00;101614.00;5054328;28;20028;-73
2023/11/26 06:12:37;;;;;;;1.27;0.77;;;;;;;4.79;100.00;101611.41;5054731;28;20075;-73
2023/11/26 06:15:03;;;;;;;1.10;0.60;;;;;;;4.81;100.00;101606.22;5055021;28;20037;-73
2023/11/26 06:17:29;;;;;;;3.60;1.00;;;;;;;4.79;100.00;101611.41;5054434;28;20053;-72
2023/11/26 06:19:54;;;;;;;2.47;1.10;;;;;;;4.77;100.00;101609.72;5055018;28;20052;-72
2023/11/26 06:22:20;;;;;;;1.77;0.90;;;;;;;4.78;100.00;101604.53;5055243;28;20040;-72
2023/11/26 06:24:45;;;;;;;3.78;1.15;;;;;;;4.80;100.00;101601.88;5054811;28;20045;-72
2023/11/26 06:27:11;;;;;;;1.60;1.10;;;;;;;4.82;100.00;101610.56;5054528;28;20340;-72
2023/11/26 06:29:37;;;;;;;1.92;0.68;;;;;;;4.80;100.00;101607.97;5054176;28;20067;-72
2023/11/26 06:32:04;;;;;;;1.55;0.85;;;;;;;4.82;100.00;101613.16;5048913;28;20029;-72
2023/11/26 06:34:30;;;;;;;1.08;0.80;;;;;;;4.82;100.00;101620.94;5054334;28;20040;-72
2023/11/26 06:36:55;;;;;;;3.13;1.15;;;;;;;4.79;100.00;101626.13;5054522;28;20612;-72
2023/11/26 06:39:20;;;;;;;2.75;1.20;;;;;;;4.75;100.00;101625.28;5054442;28;20033;-72
2023/11/26 06:41:46;;;;;;;3.72;1.30;;;;;;;4.76;100.00;101633.94;5054330;28;20052;-72
2023/11/26 06:44:11;;;;;;;4.47;1.00;;;;;;;4.82;100.00;101641.72;5054393;28;20036;-72
2023/11/26 06:46:37;;;;;;;3.05;1.23;;;;;;;4.83;100.00;101632.19;5054094;28;20040;-73
2023/11/26 06:49:02;;;;;;;3.20;1.00;;;;;;;4.86;100.00;101634.75;5054397;28;20054;-72
2023/11/26 06:51:27;;;;;;;3.53;1.10;;;;;;;4.90;100.00;101628.69;5054469;28;20041;-72
2023/11/26 06:53:53;;;;;;;4.75;1.05;;;;;;;4.96;100.00;101629.50;5054268;28;20320;-72
2023/11/26 06:56:19;;;;;;;4.38;1.10;;;;;;;5.01;100.00;101629.50;5053161;28;20033;-72
2023/11/26 06:58:46;;;;;;;2.15;1.08;;;;;;;5.07;100.00;101620.81;5053730;28;20347;-73
2023/11/26 07:01:12;;;;;;;1.80;0.73;;;;;;;5.09;100.00;101619.06;5052622;28;20017;-74
2023/11/26 07:03:38;;;;;;;1.40;0.75;;;;;;;5.12;100.00;101621.66;5054087;28;20041;-72
2023/11/26 07:06:08;;;;;;;2.30;0.82;;;;;;;5.10;100.00;101620.81;5054231;28;20048;-73
2023/11/26 07:08:37;;;;;;;2.05;0.82;;;;;;;5.08;100.00;101618.22;5050195;28;20036;-73
2023/11/26 07:11:02;;;;;;;1.52;0.80;;;;;;;5.06;100.00;101609.56;5053956;28;20032;-73
2023/11/26 07:13:28;;;;;;;3.33;0.82;;;;;;;5.05;100.00;101622.56;5053857;28;20083;-73
2023/11/26 07:15:54;;;;;;;3.90;0.95;;;;;;;4.99;100.00;101619.13;5054163;28;20332;-73
2023/11/26 07:18:19;;;;;;;3.92;1.08;;;;;;;4.97;100.00;101610.47;5054485;28;20352;-73
2023/11/26 07:20:48;;;;;;;1.33;0.70;;;;;;;4.97;100.00;101614.81;5054271;28;20324;-73
2023/11/26 07:23:13;;;;;;;2.00;1.10;;;;;;;4.98;100.00;101619.13;5057704;28;20036;-73
2023/11/26 07:25:39;;;;;;;0.90;0.77;;;;;;;5.00;100.00;101614.78;5058284;28;20645;-73
2023/11/26 07:28:08;;;;;;;3.92;1.25;;;;;;;4.99;100.00;101610.47;5058103;28;20028;-73
2023/11/26 07:30:40;;;;;;;;;;;;;;;4.97;100.00;101614.81;5058415;28;20398;-73
2023/11/26 07:33:06;;;;;;;2.38;1.02;;;;;;;4.95;100.00;101607.03;5056740;28;19936;-73
2023/11/26 07:35:31;;;;;;;7.30;0.98;;;;;;;4.92;100.00;101609.63;5058338;28;20372;-73
2023/11/26 07:37:57;;;;;;;1.58;0.98;;;;;;;4.92;100.00;101609.63;5058154;28;20075;-73
2023/11/26 07:40:22;;;;;;;3.28;1.08;;;;;;;4.93;100.00;101607.88;5057915;28;20370;-73
2023/11/26 07:42:49;;;;;;;3.80;1.20;;;;;;;4.93;100.00;101610.47;5057805;28;20032;-73
2023/11/26 07:45:15;;;;;;;1.50;0.90;;;;;;;4.89;100.00;101612.22;5057311;28;20067;-73
2023/11/26 07:47:40;;;;;;;5.72;1.35;;;;;;;4.85;100.00;101617.47;5057485;28;20040;-73
2023/11/26 07:50:07;;;;;;;3.65;1.00;;;;;;;4.83;100.00;101617.47;5057704;28;20094;-73
2023/11/26 07:52:34;;;;;;;1.92;0.70;;;;;;;4.80;100.00;101618.34;5057559;28;20040;-73
2023/11/26 07:55:01;;;;;;;3.55;1.20;;;;;;;4.79;100.00;101616.59;5057482;28;20104;-73
2023/11/26 07:57:27;;;;;;;2.95;1.40;;;;;;;4.78;100.00;101622.69;5057574;28;20263;-73
2023/11/26 07:59:52;;;;;;;2.70;1.00;;;;;;;4.76;100.00;101620.94;5057944;28;20078;-73
2023/11/26 08:02:20;;;;;;;2.28;1.10;;;;;;;4.78;100.00;101619.22;5057444;28;20043;-73
2023/11/26 08:04:48;;;;;;;3.85;0.80;;;;;;;4.78;100.00;101620.09;5054589;28;20064;-73
2023/11/26 08:07:14;;;;;;;2.70;0.98;;;;;;;4.81;100.00;101624.41;5055275;28;20040;-73
2023/11/26 08:09:39;;;;;;;1.48;0.88;;;;;;;4.84;100.00;101618.31;5057183;28;20024;-73
2023/11/26 08:12:06;;;;;;;4.65;1.58;;;;;;;4.87;100.00;101618.31;5057095;28;20044;-73
2023/11/26 08:14:32;;;;;;;3.42;1.50;;;;;;;4.87;100.00;101616.56;5056626;28;20095;-73
2023/11/26 08:16:57;;;;;;;4.15;1.15;;;;;;;4.91;100.00;101617.41;5053424;28;20041;-73
2023/11/26 08:19:24;;;;;;;5.57;1.30;;;;;;;4.93;100.00;101618.25;5037413;28;20098;-73
2023/11/26 08:21:53;;;;;;;5.55;1.30;;;;;;;4.95;100.00;101617.41;5037311;28;20041;-74
2023/11/26 08:24:18;;;;;;;6.32;1.50;;;;;;;4.98;100.00;101619.13;5037314;28;20067;-73
2023/11/26 08:26:47;;;;;;;7.28;1.58;;;;;;;4.98;100.00;101614.81;5035684;28;20055;-73
2023/11/26 08:29:16;;;;;;;1.88;1.20;;;;;;;4.98;100.00;101619.13;5036857;28;20097;-73
2023/11/26 08:31:42;;;;;;;;;;;;;;;4.99;100.00;101626.03;5036982;28;20079;-73
2023/11/26 08:34:10;;;;;;;3.00;1.13;;;;;;;5.01;100.00;101632.09;5036287;28;20318;-73
2023/11/26 08:36:45;;;;;;;4.05;1.55;;;;;;;5.04;100.00;101634.69;5036215;28;20322;-73
2023/11/26 08:39:27;;;;;;;4.65;1.38;;;;;;;5.05;100.00;101632.94;5036220;28;20029;-73
2023/11/26 08:41:53;;;;;;;5.95;1.50;;;;;;;5.11;100.00;101630.28;5036258;28;20044;-73
2023/11/26 08:44:18;;;;;;;4.47;1.27;;;;;;;5.17;100.00;101622.50;5037087;28;20063;-73
2023/11/26 08:46:45;;;;;;;2.15;1.13;;;;;;;5.22;100.00;101607.75;5026240;28;20046;-73
2023/11/26 08:49:15;;;;;;;2.30;0.90;;;;;;;5.28;100.00;101610.31;5034064;28;20352;-73
2023/11/26 08:51:41;;;;;;;2.00;0.90;;;;;;;5.34;100.00;101617.19;5033996;28;20083;-73
2023/11/26 08:54:06;;;;;;;1.38;0.98;;;;;;;5.36;100.00;101615.44;5030416;28;20311;-73
2023/11/26 08:56:31;;;;;;;0.88;0.65;;;;;;;5.40;100.00;101622.31;5031041;28;20153;-73
2023/11/26 08:58:57;;;;;;;2.70;1.08;;;;;;;5.43;100.00;101619.72;5032414;28;20266;-73
2023/11/26 09:01:22;;;;;;;1.70;0.98;;;;;;;5.46;100.00;101616.25;5013428;28;20064;-73
2023/11/26 09:03:47;;;;;;;2.10;0.90;;;;;;;5.48;100.00;101615.34;5032560;28;20090;-73
2023/11/26 09:06:13;;;;;;;0.80;0.70;;;;;;;5.52;100.00;101619.66;5032637;28;20342;-73
2023/11/26 09:08:39;;;;;;;1.42;0.80;;;;;;;5.55;100.00;101621.38;5033198;28;20033;-73
2023/11/26 09:11:09;;;;;;;1.55;0.60;;;;;;;5.60;100.00;101626.53;5033101;28;20353;-73
2023/11/26 09:13:34;;;;;;;2.10;0.73;;;;;;;5.61;100.00;101616.13;5032689;28;20246;-73
2023/11/26 09:16:00;;;;;;;3.78;0.80;;;;;;;5.62;100.00;101606.59;5014193;28;20032;-73
2023/11/26 09:18:26;;;;;;;1.85;1.00;;;;;;;5.65;100.00;101606.56;5032838;28;20268;-73
2023/11/26 09:20:51;;;;;;;1.38;0.73;;;;;;;5.67;100.00;101608.28;5029269;28;20041;-73
2023/11/26 09:23:16;;;;;;;1.23;0.70;;;;;;;5.69;100.00;101606.53;5014380;28;20071;-73
2023/11/26 09:25:42;;;;;;;1.25;0.60;;;;;;;5.73;100.00;101602.16;5034291;28;20052;-73
2023/11/26 09:28:07;;;;;;;1.90;0.88;;;;;;;5.75;100.00;101606.50;5035226;28;20041;-73
2023/11/26 09:30:34;;;;;;;1.50;0.60;;;;;;;5.78;100.00;101605.59;5031246;28;20025;-73
2023/11/26 09:32:59;;;;;;;1.75;0.80;;;;;;;5.80;100.00;101602.97;5031476;28;20496;-73
2023/11/26 09:35:25;;;;;;;1.08;0.65;;;;;;;5.84;100.00;101605.56;5031994;28;20040;-73
2023/11/26 09:37:50;;;;;;;0.70;0.70;;;;;;;5.86;100.00;101608.16;5033304;28;20250;-73
2023/11/26 09:40:16;;;;;;;1.00;0.90;;;;;;;5.89;100.00;101608.09;5034042;28;20043;-73
2023/11/26 09:42:47;;;;;;;1.13;0.93;;;;;;;5.91;100.00;101612.44;5015779;28;20096;-73
2023/11/26 09:45:13;;;;;;;2.83;1.10;;;;;;;5.93;100.00;101613.28;5033475;28;20034;-73
2023/11/26 09:47:39;;;;;;;1.80;0.98;;;;;;;5.96;100.00;101610.66;5033113;28;20106;-73
2023/11/26 09:50:05;;;;;;;2.83;1.08;;;;;;;5.99;100.00;101611.53;5033877;28;20021;-73
2023/11/26 09:52:31;;;;;;;4.22;1.27;;;;;;;6.00;100.00;101605.44;5033476;28;20123;-73
2023/11/26 09:54:57;;;;;;;4.40;1.38;;;;;;;5.99;100.00;101601.97;5033245;28;20349;-73
2023/11/26 09:57:23;;;;;;;2.40;1.20;;;;;;;6.03;100.00;101608.00;5033582;28;20118;-73
2023/11/26 09:59:48;;;;;;;7.10;1.55;;;;;;;6.03;100.00;101608.00;5032956;28;20029;-73
2023/11/26 10:02:14;;;;;;;7.15;1.48;;;;;;;6.02;100.00;101608.88;5033863;28;20037;-73
2023/11/26 10:04:50;;;;;;;5.32;1.50;;;;;;;6.03;100.00;101621.88;5032954;28;20033;-73
2023/11/26 10:07:17;;;;;;;6.70;1.70;;;;;;;6.05;100.00;101621.84;5033202;28;20084;-73
2023/11/26 10:09:59;;;;;;;3.55;1.17;;;;;;;6.07;100.00;101614.91;5032823;28;20033;-73
2023/11/26 10:12:25;;;;;;;9.55;1.33;;;;;;;6.10;100.00;101607.06;5033349;28;20044;-73
2023/11/26 10:15:11;;;;;;;4.30;1.15;;;;;;;6.11;100.00;101607.06;5032829;28;20507;-73
2023/11/26 10:17:36;;;;;;;3.20;0.80;;;;;;;6.13;100.00;101609.63;5034212;28;20160;-73
2023/11/26 10:20:18;;;;;;;4.15;0.98;;;;;;;6.15;100.00;101602.69;5033049;28;20045;-73
2023/11/26 10:22:47;;;;;;;2.10;0.73;;;;;;;6.17;100.00;101605.25;5029758;28;20033;-73
2023/11/26 10:25:13;;;;;;;2.47;0.70;;;;;;;6.18;100.00;101605.25;5015817;28;20029;-73
2023/11/26 10:27:39;;;;;;;5.57;1.00;;;;;;;6.20;100.00;101600.03;5033009;28;20344;-73
2023/11/26 10:30:07;;;;;;;1.95;0.80;;;;;;;6.22;100.00;101601.75;5033540;28;20032;-73
2023/11/26 10:32:32;;;;;;;4.22;0.82;;;;;;;6.23;100.00;101603.47;5032899;28;20033;-73
2023/11/26 10:34:59;;;;;;;0.55;0.45;;;;;;;6.26;100.00;101594.78;5032710;28;20037;-73
2023/11/26 10:37:24;;;;;;;3.92;0.90;;;;;;;6.26;100.00;101592.19;5032922;28;20276;-73
2023/11/26 10:39:52;;;;;;;1.15;0.47;;;;;;;6.30;100.00;101594.72;5032613;28;20088;-73
2023/11/26 10:42:19;;;;;;;2.60;0.60;;;;;;;6.33;100.00;101593.81;5032930;28;20394;-73
2023/11/26 10:44:49;;;;;;;2.60;0.70;;;;;;;6.35;100.00;101589.47;5031843;28;20061;-73
2023/11/26 10:47:20;;;;;;;1.35;0.70;;;;;;;6.38;100.00;101581.63;5032375;28;20041;-73
2023/11/26 10:49:51;;;;;;;2.88;0.50;;;;;;;6.41;100.00;101581.59;5031985;28;20093;-73
2023/11/26 10:52:32;;;;;;;1.02;0.50;;;;;;;6.43;100.00;101585.03;5030310;28;20056;-73
2023/11/26 10:55:35;;;;;;;0.40;0.40;;;;;;;6.47;100.00;101585.88;5029843;28;20040;-73
2023/11/26 10:58:15;;;;;;;0.55;0.38;;;;;;;6.50;100.00;101585.84;5031571;28;20225;-73
2023/11/26 11:00:43;;;;;;;3.70;0.70;;;;;;;6.51;100.00;101584.94;5014136;28;20105;-73
2023/11/26 11:03:09;;;;;;;6.82;1.05;;;;;;;6.48;100.00;101585.84;5032667;28;20271;-73
2023/11/26 11:05:35;;;;;;;4.78;0.77;;;;;;;6.43;100.00;101585.03;5032672;28;20093;-73
2023/11/26 11:08:01;;;;;;;2.97;1.02;;;;;;;6.46;100.00;101586.75;5032547;28;20300;-73
2023/11/26 11:10:49;;;;;;;3.92;1.25;;;;;;;6.42;100.00;101588.53;5031672;28;20037;-73
2023/11/26 11:13:16;;;;;;;2.30;0.68;;;;;;;6.37;100.00;101586.84;5032898;28;20248;-73
2023/11/26 11:15:43;;;;;;;5.32;0.90;;;;;;;6.36;100.00;101583.38;5032252;28;20041;-73
2023/11/26 11:18:26;;;;;;;3.25;0.60;;;;;;;6.34;100.00;101585.16;5034122;28;20080;-73
2023/11/26 11:21:05;;;;;;;2.95;0.52;;;;;;;6.29;100.00;101582.63;5032942;28;20036;-73
2023/11/26 11:23:32;;;;;;;1.15;0.40;;;;;;;6.25;100.00;101580.91;5033993;28;20045;-73
2023/11/26 11:25:58;;;;;;;3.15;0.60;;;;;;;6.29;100.00;101573.91;5033035;28;20041;-74
2023/11/26 11:28:49;;;;;;;4.40;0.55;;;;;;;6.30;100.00;101567.84;5033611;28;20072;-74